Main page
METAR-TAF:

METAR-TAF

Airports :

Girona–Costa Brava Airport

Girona, Spain

latitude: 41-54N, longitude: 002-46E, elevation: 143 m

Current weather observation

The report was made 29 minutes ago, at 22:00 UTC
Wind 2 kt from variable directions
Temperature 2°C
Humidity 93%
Pressure 1022 hPa
Visibility 10 km or more
no clouds below 1500 m and no cumulonimbus

METAR: LEGE 102200Z VRB02KT CAVOK 02/01 Q1022

Time: 23:29 (22:29 UTC)

Forecast

The report was made 5 hours and 29 minutes ago, at 17:00 UTC
Forecast valid from 10 at 18 UTC to 11 at 18 UTC
Wind 4 kt from variable directions
Visibility 10 km or more
no clouds below 1500 m and no cumulonimbus
Probability 40% :
Temporary
from 10 at 20 UTC to 11 at 08 UTC
Visibility: 3000 m
mist

TAF: LEGE 101700Z 1018/1118 VRB04KT CAVOK TX15/1113Z TN03/1106Z PROB40 TEMPO 1020/1108 3000 BR

Weather observations and forecasts of more than 4000 airports (METAR and TAF reports).

The available stations are represented by yellow and red dots on the map.

Hover mouse over dot to see the name of the station.

Then click to see weather observations and forecasts.

To change the map : click on the green buttons with a black cross to zoom in, on the green button with a dash to zoom out, or on the green arrows for adjacent maps.


METAR-TAF: